Forks Township, Pennsylvania
Current Conditions -  °F | °C
As of 11:51 PM on Monday 20 Oct 2014 (Local Time) from KABE Reporting Station
Light Rain Light Rain  
Wind Chill: 54°   Ceiling: 6500
Heat Index: 54°   Visibility: 9mi
Dew Point: 45°   Wind: 5mph
Humidity: 72%   Direction: 210°SSW
Pressure: 29.95"   Gusts: NA
Location:  40.7421°N, 75.2249°W
Report Text: KABE 210351Z 21004KT 9SM -RA FEW046 OVC065 12/07 A2995 RMK AO2 RAB34 SLP141 P0000 T01220072
Loading
Personal Weather Stations






























Interactive Weather Map
Tropical Storm Tracking
New forecast layout! Learn more

10-Day Weather Forecast

Advertisements
Track Severe Weather on mobile